Time;durP1;ratioP1;P1;durP2;ratioP2;P2;SDS_P1;SDS_P2;PMS_P1;PMS_P2;Temp;Humidity;BMP_temperature;BMP_pressure;BME280_temperature;BME280_humidity;BME280_pressure;Samples;Min_cycle;Max_cycle;Signal;HPM_P1;HPM_P2
2020/12/08 00:00:54;;;;;;;9.40;5.53;;;3.20;99.90;;;;;;1974414;72;21071;-81
2020/12/08 00:03:20;;;;;;;10.98;6.50;;;3.30;99.90;;;;;;1974916;72;21106;-83
2020/12/08 00:05:46;;;;;;;9.60;5.72;;;3.20;99.90;;;;;;1974658;72;21036;-81
2020/12/08 00:08:12;;;;;;;9.10;6.00;;;3.20;99.90;;;;;;1980513;72;21059;-81
2020/12/08 00:10:39;;;;;;;9.45;5.92;;;3.20;99.90;;;;;;1973044;72;21163;-81
2020/12/08 00:13:05;;;;;;;15.23;6.08;;;3.30;99.90;;;;;;1972538;72;21059;-81
2020/12/08 00:15:31;;;;;;;16.23;6.03;;;3.30;99.90;;;;;;1980726;72;21102;-81
2020/12/08 00:17:57;;;;;;;11.65;7.17;;;3.30;99.90;;;;;;1974495;73;21071;-81
2020/12/08 00:20:23;;;;;;;12.03;6.30;;;3.20;99.90;;;;;;1974598;73;21419;-80
2020/12/08 00:22:49;;;;;;;11.75;6.75;;;3.30;99.90;;;;;;1973121;72;21497;-81
2020/12/08 00:25:15;;;;;;;12.18;6.92;;;3.20;99.90;;;;;;1970644;72;21452;-79
2020/12/08 00:27:43;;;;;;;11.80;6.90;;;3.30;99.90;;;;;;1980760;72;21128;-78
2020/12/08 00:30:09;;;;;;;13.30;6.90;;;3.30;99.90;;;;;;1980459;72;21063;-80
2020/12/08 00:32:35;;;;;;;12.73;7.15;;;3.30;99.90;;;;;;1976302;72;21075;-80
2020/12/08 00:35:01;;;;;;;14.07;6.72;;;3.30;99.90;;;;;;1964940;72;21160;-80
2020/12/08 00:37:27;;;;;;;13.25;7.87;;;3.30;99.90;;;;;;1974081;72;21389;-80
2020/12/08 00:39:53;;;;;;;9.68;6.58;;;3.30;99.90;;;;;;1974538;73;21467;-80
2020/12/08 00:42:19;;;;;;;15.43;7.45;;;3.30;99.90;;;;;;1974405;72;21479;-80
2020/12/08 00:44:45;;;;;;;15.00;7.00;;;3.30;99.90;;;;;;1971244;72;21121;-80
2020/12/08 00:47:12;;;;;;;14.93;7.30;;;3.30;99.90;;;;;;1971187;72;21058;-80
2020/12/08 00:49:38;;;;;;;12.50;7.40;;;3.30;99.90;;;;;;1974373;72;21113;-82
2020/12/08 00:52:04;;;;;;;14.50;7.90;;;3.30;99.90;;;;;;1974779;72;21043;-81
2020/12/08 00:54:30;;;;;;;11.35;7.92;;;3.30;99.90;;;;;;1978480;72;21059;-81
2020/12/08 00:56:56;;;;;;;15.23;8.10;;;3.30;99.90;;;;;;1974257;72;21031;-81
2020/12/08 00:59:22;;;;;;;20.10;9.18;;;3.40;99.90;;;;;;1973050;72;21179;-79
2020/12/08 01:01:48;;;;;;;14.03;8.13;;;3.40;99.90;;;;;;1979126;72;21054;-81
2020/12/08 01:04:14;;;;;;;15.48;7.95;;;3.40;99.90;;;;;;1975801;72;21047;-81
2020/12/08 01:06:41;;;;;;;12.90;8.13;;;3.40;99.90;;;;;;1973729;72;21088;-80
2020/12/08 01:09:07;;;;;;;13.48;7.55;;;3.40;99.90;;;;;;1973238;72;21055;-80
2020/12/08 01:11:33;;;;;;;14.43;7.95;;;3.40;99.90;;;;;;1978649;72;21051;-80
2020/12/08 01:13:59;;;;;;;13.30;7.80;;;3.30;99.90;;;;;;1980681;72;21055;-80
2020/12/08 01:16:25;;;;;;;17.02;7.72;;;3.30;99.90;;;;;;1973458;72;21063;-80
2020/12/08 01:18:51;;;;;;;13.10;7.58;;;3.30;99.90;;;;;;1971617;72;21079;-80
2020/12/08 01:21:17;;;;;;;17.57;9.63;;;3.30;99.90;;;;;;1974172;72;21051;-80
2020/12/08 01:23:43;;;;;;;18.23;8.73;;;3.20;99.90;;;;;;1974521;73;21033;-81
2020/12/08 01:26:10;;;;;;;16.32;9.10;;;3.20;99.90;;;;;;1970563;72;21080;-80
2020/12/08 01:28:36;;;;;;;14.33;7.67;;;3.30;99.90;;;;;;1971463;72;21086;-81
2020/12/08 01:31:02;;;;;;;13.93;8.65;;;3.20;99.90;;;;;;1971173;72;21066;-80
2020/12/08 01:33:29;;;;;;;20.32;9.45;;;3.20;99.90;;;;;;1978276;72;21132;-80
2020/12/08 01:35:55;;;;;;;16.67;8.88;;;3.30;99.90;;;;;;1984779;72;21120;-80
2020/12/08 01:38:21;;;;;;;13.03;8.05;;;3.30;99.90;;;;;;1980053;72;21075;-80
2020/12/08 01:40:47;;;;;;;14.07;9.18;;;3.30;99.90;;;;;;1974353;73;21047;-81
2020/12/08 01:43:14;;;;;;;13.35;8.00;;;3.30;99.90;;;;;;1972442;72;21156;-81
2020/12/08 01:45:40;;;;;;;21.00;8.28;;;3.20;99.90;;;;;;1975687;72;21056;-79
2020/12/08 01:48:06;;;;;;;16.17;8.53;;;3.10;99.90;;;;;;1971499;72;21128;-81
2020/12/08 01:50:32;;;;;;;14.30;8.40;;;3.10;99.90;;;;;;1972997;72;21060;-81
2020/12/08 01:52:58;;;;;;;15.80;8.35;;;3.10;99.90;;;;;;1972773;72;21031;-81
2020/12/08 01:55:24;;;;;;;15.65;7.95;;;3.20;99.90;;;;;;1975402;72;21128;-80
2020/12/08 01:57:50;;;;;;;17.40;8.45;;;3.10;99.90;;;;;;1975706;72;21133;-81
2020/12/08 02:00:16;;;;;;;19.67;9.05;;;3.10;99.90;;;;;;1971079;72;21467;-78
2020/12/08 02:02:43;;;;;;;19.85;10.45;;;3.00;99.90;;;;;;1945201;72;21467;-80
2020/12/08 02:05:09;;;;;;;19.70;10.03;;;2.90;99.90;;;;;;1979078;72;21477;-81
2020/12/08 02:07:35;;;;;;;15.98;9.05;;;2.90;99.90;;;;;;1970702;72;21064;-80
2020/12/08 02:10:01;;;;;;;14.18;9.43;;;2.80;99.90;;;;;;1974129;73;21094;-80
2020/12/08 02:12:27;;;;;;;18.50;10.60;;;2.70;99.90;;;;;;1974390;73;21146;-80
2020/12/08 02:14:53;;;;;;;15.08;8.63;;;2.70;99.90;;;;;;1971999;72;21058;-80
2020/12/08 02:17:19;;;;;;;19.73;9.40;;;2.70;99.90;;;;;;1981957;72;21134;-80
2020/12/08 02:19:45;;;;;;;24.10;8.93;;;2.70;99.90;;;;;;1971733;72;21035;-80
2020/12/08 02:22:12;;;;;;;21.27;9.05;;;2.60;99.90;;;;;;1984342;72;21136;-81
2020/12/08 02:24:38;;;;;;;17.20;9.40;;;2.50;99.90;;;;;;1985184;72;21063;-80
2020/12/08 02:27:04;;;;;;;18.48;9.43;;;2.40;99.90;;;;;;1975407;72;21457;-81
2020/12/08 02:29:30;;;;;;;15.55;9.13;;;2.30;99.90;;;;;;1977108;72;21511;-79
2020/12/08 02:31:56;;;;;;;16.37;9.08;;;2.20;99.90;;;;;;1976703;72;21535;-79
2020/12/08 02:34:22;;;;;;;27.67;9.68;;;2.10;99.90;;;;;;1971232;72;21137;-80
2020/12/08 02:36:48;;;;;;;15.63;9.20;;;2.10;99.90;;;;;;1977230;72;21038;-78
2020/12/08 02:39:14;;;;;;;17.87;9.23;;;2.10;99.90;;;;;;1967853;72;21131;-80
2020/12/08 02:41:41;;;;;;;16.67;9.38;;;2.00;99.90;;;;;;1979381;72;21129;-80
2020/12/08 02:44:07;;;;;;;15.13;9.45;;;2.00;99.90;;;;;;1973980;73;21028;-80
2020/12/08 02:46:34;;;;;;;14.83;8.58;;;1.90;99.90;;;;;;1973976;73;21023;-80
2020/12/08 02:49:00;;;;;;;12.45;8.13;;;1.90;99.90;;;;;;1971294;72;21066;-78
2020/12/08 02:51:28;;;;;;;18.12;9.10;;;1.90;99.90;;;;;;1976375;72;21055;-79
2020/12/08 02:53:54;;;;;;;18.45;8.60;;;1.80;99.90;;;;;;1966642;72;21138;-80
2020/12/08 02:56:20;;;;;;;16.95;8.95;;;1.80;99.90;;;;;;1974088;73;21055;-80
2020/12/08 02:58:46;;;;;;;13.45;7.30;;;1.90;99.90;;;;;;1970729;72;21027;-79
2020/12/08 03:01:12;;;;;;;14.40;8.80;;;1.80;99.90;;;;;;1983534;72;21105;-78
2020/12/08 03:03:38;;;;;;;14.93;8.58;;;1.90;99.90;;;;;;1973508;72;21059;-79
2020/12/08 03:06:06;;;;;;;16.32;8.43;;;1.90;99.90;;;;;;1975620;72;21063;-79
2020/12/08 03:08:32;;;;;;;14.33;8.05;;;1.80;99.90;;;;;;1977946;72;21101;-80
2020/12/08 03:10:58;;;;;;;12.03;7.95;;;1.70;99.90;;;;;;1974111;73;21051;-80
2020/12/08 03:13:25;;;;;;;20.27;9.78;;;1.70;99.90;;;;;;1969455;72;21037;-79
2020/12/08 03:15:51;;;;;;;16.07;9.50;;;1.80;99.90;;;;;;1975298;72;21049;-79
2020/12/08 03:18:17;;;;;;;17.57;8.65;;;1.80;99.90;;;;;;1984752;72;21031;-79
2020/12/08 03:20:43;;;;;;;15.18;9.15;;;1.90;99.90;;;;;;1944746;72;21059;-78
2020/12/08 03:23:09;;;;;;;21.65;9.58;;;1.90;99.90;;;;;;1974220;73;21128;-80
2020/12/08 03:25:35;;;;;;;18.73;10.30;;;1.80;99.90;;;;;;1968433;72;21027;-80
2020/12/08 03:28:01;;;;;;;18.23;9.78;;;1.80;99.90;;;;;;1965017;72;21022;-78
2020/12/08 03:30:28;;;;;;;16.48;8.25;;;1.70;99.90;;;;;;1974083;72;21059;-80
2020/12/08 03:32:54;;;;;;;14.63;8.48;;;1.70;99.90;;;;;;1971971;72;21123;-80
2020/12/08 03:35:20;;;;;;;13.98;8.68;;;1.70;99.90;;;;;;1969153;72;21050;-80
2020/12/08 03:37:46;;;;;;;16.60;8.93;;;1.70;99.90;;;;;;1976536;72;21124;-80
2020/12/08 03:40:12;;;;;;;27.58;9.88;;;1.70;99.90;;;;;;1973667;72;21113;-80
2020/12/08 03:42:38;;;;;;;16.85;9.78;;;1.70;99.90;;;;;;1974878;72;21048;-78
2020/12/08 03:45:04;;;;;;;15.30;8.90;;;1.70;99.90;;;;;;1974090;72;21055;-78
2020/12/08 03:47:31;;;;;;;20.55;10.10;;;1.60;99.90;;;;;;1966636;72;21127;-79
2020/12/08 03:49:57;;;;;;;14.90;9.18;;;1.60;99.90;;;;;;1987086;72;21059;-78
2020/12/08 03:52:23;;;;;;;16.12;9.33;;;1.60;99.90;;;;;;1971291;72;21047;-78
2020/12/08 03:54:49;;;;;;;16.70;8.38;;;1.60;99.90;;;;;;1976844;72;21104;-78
2020/12/08 03:57:15;;;;;;;21.35;10.08;;;1.60;99.90;;;;;;1969416;72;21186;-80
2020/12/08 04:02:27;;;;;;;16.77;9.03;;;1.50;99.90;;;;;;1906967;74;21090;-79
2020/12/08 04:04:53;;;;;;;20.85;10.72;;;1.50;99.90;;;;;;1914026;74;21085;-81
2020/12/08 04:07:19;;;;;;;18.52;9.38;;;1.50;99.90;;;;;;1906561;74;21082;-79
2020/12/08 04:09:45;;;;;;;18.62;9.68;;;1.40;99.90;;;;;;1927964;73;21436;-79
2020/12/08 04:12:11;;;;;;;15.05;9.23;;;1.40;99.90;;;;;;1928668;73;21549;-79
2020/12/08 04:14:37;;;;;;;23.62;9.95;;;1.40;99.90;;;;;;1886350;73;21585;-79
2020/12/08 04:17:03;;;;;;;21.45;10.03;;;1.30;99.90;;;;;;1924755;73;21564;-79
2020/12/08 04:19:30;;;;;;;21.85;10.10;;;1.30;99.90;;;;;;1920656;73;21061;-80
2020/12/08 04:21:56;;;;;;;20.60;10.50;;;1.20;99.90;;;;;;1901889;73;21055;-79
2020/12/08 04:24:22;;;;;;;19.50;9.73;;;1.10;99.90;;;;;;1927950;73;21124;-79
2020/12/08 04:26:48;;;;;;;19.12;9.00;;;1.10;99.90;;;;;;1915832;73;21071;-79
2020/12/08 04:29:14;;;;;;;16.95;9.63;;;1.00;99.90;;;;;;1918678;73;21035;-79
2020/12/08 04:31:40;;;;;;;22.35;10.53;;;1.00;99.90;;;;;;1944522;74;21050;-79
2020/12/08 04:34:06;;;;;;;27.25;12.33;;;1.00;99.90;;;;;;1938853;73;21122;-80
2020/12/08 04:36:32;;;;;;;17.37;11.20;;;1.10;99.90;;;;;;1905901;73;21206;-79
2020/12/08 04:38:59;;;;;;;21.42;12.47;;;1.10;99.90;;;;;;1901056;73;21066;-79
2020/12/08 04:41:25;;;;;;;21.15;10.98;;;1.10;99.90;;;;;;1927870;73;21043;-80
2020/12/08 04:43:53;;;;;;;17.57;10.43;;;1.00;99.90;;;;;;1915789;73;21078;-80
2020/12/08 04:46:19;;;;;;;21.12;10.00;;;1.00;99.90;;;;;;1934304;73;21059;-80
2020/12/08 04:48:45;;;;;;;23.10;10.85;;;1.00;99.90;;;;;;1928630;73;21160;-79
2020/12/08 04:51:11;;;;;;;20.85;10.25;;;1.10;99.90;;;;;;1908696;73;21066;-78
2020/12/08 04:53:37;;;;;;;16.25;9.65;;;1.10;99.90;;;;;;1896943;73;21040;-79
2020/12/08 04:56:03;;;;;;;18.50;9.50;;;1.10;99.90;;;;;;1904693;73;21074;-79
2020/12/08 04:58:29;;;;;;;20.52;9.90;;;1.10;99.90;;;;;;1900830;73;21467;-78
2020/12/08 05:00:56;;;;;;;18.07;9.43;;;1.10;99.90;;;;;;1929834;73;21567;-80
2020/12/08 05:03:22;;;;;;;15.18;8.93;;;1.00;99.90;;;;;;1912540;73;21567;-78
2020/12/08 05:05:48;;;;;;;17.57;9.18;;;1.10;99.90;;;;;;1906314;73;21493;-79
2020/12/08 05:08:14;;;;;;;14.68;9.20;;;1.10;99.90;;;;;;1916951;73;21038;-80
2020/12/08 05:10:40;;;;;;;15.53;8.93;;;1.10;99.90;;;;;;1925634;73;21144;-79
2020/12/08 05:13:06;;;;;;;19.55;9.28;;;1.20;99.90;;;;;;1925088;73;21075;-78
2020/12/08 05:15:32;;;;;;;17.90;9.28;;;1.30;99.90;;;;;;1922554;73;21054;-79
2020/12/08 05:17:58;;;;;;;20.70;10.38;;;1.30;99.90;;;;;;1898358;73;21136;-79
2020/12/08 05:20:24;;;;;;;16.23;9.25;;;1.30;99.90;;;;;;1925635;73;21079;-79
2020/12/08 05:22:51;;;;;;;14.75;8.58;;;1.20;99.90;;;;;;1917314;73;21133;-79
2020/12/08 05:25:17;;;;;;;21.00;9.25;;;1.30;99.90;;;;;;1923225;72;21109;-80
2020/12/08 05:27:43;;;;;;;15.63;9.33;;;1.30;99.90;;;;;;1910478;73;21066;-79
2020/12/08 05:30:09;;;;;;;17.70;10.13;;;1.40;99.90;;;;;;1918217;73;21058;-79
2020/12/08 05:32:35;;;;;;;15.70;8.43;;;1.40;99.90;;;;;;1918834;73;21143;-80
2020/12/08 05:35:01;;;;;;;19.45;8.95;;;1.50;99.90;;;;;;1939976;73;21047;-80
2020/12/08 05:37:27;;;;;;;19.85;9.75;;;1.50;99.90;;;;;;1922281;73;21127;-80
2020/12/08 05:39:53;;;;;;;16.02;9.48;;;1.40;99.90;;;;;;1931977;73;21553;-80
2020/12/08 05:42:20;;;;;;;23.20;9.33;;;1.30;99.90;;;;;;1885722;74;21537;-78
2020/12/08 05:44:46;;;;;;;15.58;9.68;;;1.40;99.90;;;;;;1929329;73;21554;-78
2020/12/08 05:47:12;;;;;;;17.23;8.93;;;1.40;99.90;;;;;;1902411;74;21020;-80
2020/12/08 05:49:38;;;;;;;17.55;9.85;;;1.40;99.90;;;;;;1943380;73;21052;-80
2020/12/08 05:52:05;;;;;;;17.37;9.48;;;1.40;99.90;;;;;;1909238;74;21051;-76
2020/12/08 05:54:32;;;;;;;18.87;9.28;;;1.50;99.90;;;;;;1922619;73;21075;-76
2020/12/08 05:56:58;;;;;;;22.70;9.88;;;1.50;99.90;;;;;;1932873;73;21482;-85
2020/12/08 05:59:24;;;;;;;22.15;10.38;;;1.50;99.90;;;;;;1944543;73;21067;-80
2020/12/08 06:01:50;;;;;;;20.95;9.73;;;1.50;99.90;;;;;;1929503;73;21063;-81
2020/12/08 06:04:16;;;;;;;22.32;9.95;;;1.50;99.90;;;;;;1944641;74;21330;-79
2020/12/08 06:06:42;;;;;;;17.95;10.08;;;1.50;99.90;;;;;;1927334;73;21039;-79
2020/12/08 06:09:09;;;;;;;17.25;9.55;;;1.60;99.90;;;;;;1903428;73;21129;-80
2020/12/08 06:11:35;;;;;;;14.75;9.35;;;1.70;99.90;;;;;;1898497;73;21059;-81
2020/12/08 06:14:01;;;;;;;22.90;10.58;;;1.70;99.90;;;;;;1944256;74;21132;-79
2020/12/08 06:16:27;;;;;;;16.52;9.50;;;1.70;99.90;;;;;;1910632;73;21070;-81
2020/12/08 06:18:53;;;;;;;15.90;9.15;;;1.80;99.90;;;;;;1921669;73;21511;-80
2020/12/08 06:21:19;;;;;;;18.57;9.93;;;1.70;99.90;;;;;;1935658;73;21728;-82
2020/12/08 06:23:45;;;;;;;19.67;9.95;;;1.80;99.90;;;;;;1926110;73;21031;-80
2020/12/08 06:26:12;;;;;;;19.23;10.03;;;1.80;99.90;;;;;;1929752;73;21056;-79
2020/12/08 06:28:38;;;;;;;17.65;10.08;;;1.80;99.90;;;;;;1935250;73;21074;-80
2020/12/08 06:31:04;;;;;;;23.87;10.90;;;1.80;99.90;;;;;;1944736;74;21063;-81
2020/12/08 06:33:30;;;;;;;14.18;8.95;;;1.70;99.90;;;;;;1936485;73;21063;-81
2020/12/08 06:35:56;;;;;;;16.50;9.83;;;1.70;99.90;;;;;;1882938;75;21056;-80
2020/12/08 06:38:22;;;;;;;22.60;11.10;;;1.70;99.90;;;;;;1910767;75;21131;-81
2020/12/08 06:40:48;;;;;;;27.20;10.82;;;1.50;99.90;;;;;;1929576;73;21152;-80
2020/12/08 06:43:14;;;;;;;14.33;8.98;;;1.60;99.90;;;;;;1929180;73;21081;-80
2020/12/08 06:45:40;;;;;;;18.60;10.88;;;1.60;99.90;;;;;;1897078;75;21114;-81
2020/12/08 06:48:07;;;;;;;18.55;9.55;;;1.50;99.90;;;;;;1945224;73;21456;-80
2020/12/08 06:50:33;;;;;;;19.27;10.70;;;1.50;99.90;;;;;;1944185;73;21488;-81
2020/12/08 06:52:59;;;;;;;16.87;10.13;;;1.40;99.90;;;;;;1928254;73;21471;-81
2020/12/08 06:55:25;;;;;;;21.57;11.22;;;1.40;99.90;;;;;;1917480;73;21141;-81
2020/12/08 06:57:51;;;;;;;25.80;11.33;;;1.40;99.90;;;;;;1926717;73;21131;-77
2020/12/08 07:00:17;;;;;;;19.82;10.72;;;1.30;99.90;;;;;;1912875;73;21121;-77
2020/12/08 07:02:48;;;;;;;19.57;9.95;;;1.30;99.90;;;;;;1922224;73;21036;-77
2020/12/08 07:05:11;;;;;;;15.95;9.35;;;1.20;99.90;;;;;;1913531;73;21103;-78
2020/12/08 07:07:37;;;;;;;21.07;10.65;;;1.10;99.90;;;;;;1936845;73;21075;-77
2020/12/08 07:10:03;;;;;;;16.97;9.40;;;1.10;99.90;;;;;;1929964;73;21136;-78
2020/12/08 07:12:30;;;;;;;19.75;10.35;;;1.10;99.90;;;;;;1926943;73;21079;-79
2020/12/08 07:14:56;;;;;;;29.82;12.90;;;1.00;99.90;;;;;;1904090;73;21032;-78
2020/12/08 07:17:22;;;;;;;26.97;12.45;;;1.00;99.90;;;;;;1935885;73;21071;-78
2020/12/08 07:19:48;;;;;;;32.55;12.20;;;1.10;99.90;;;;;;1922176;73;21186;-78
2020/12/08 07:22:14;;;;;;;24.23;12.30;;;1.10;99.90;;;;;;1935891;73;21148;-79
2020/12/08 07:24:40;;;;;;;29.07;12.10;;;1.10;99.90;;;;;;1928813;73;21144;-78
2020/12/08 07:27:06;;;;;;;25.23;11.68;;;1.20;99.90;;;;;;1916217;73;21120;-77
2020/12/08 07:29:32;;;;;;;23.18;12.30;;;1.20;99.90;;;;;;1917707;73;21063;-79
2020/12/08 07:31:59;;;;;;;24.32;11.83;;;1.20;99.90;;;;;;1912166;73;21082;-78
2020/12/08 07:34:25;;;;;;;26.17;11.73;;;1.20;99.90;;;;;;1936316;73;21463;-80
2020/12/08 07:36:51;;;;;;;20.10;10.75;;;1.20;99.90;;;;;;1924724;73;21469;-79
2020/12/08 07:39:17;;;;;;;20.82;11.38;;;1.30;99.90;;;;;;1935633;73;21501;-79
2020/12/08 07:41:45;;;;;;;23.25;10.23;;;1.30;99.90;;;;;;1933800;73;21142;-79
2020/12/08 07:44:11;;;;;;;20.97;11.18;;;1.40;99.90;;;;;;1922987;73;21130;-78
2020/12/08 07:46:37;;;;;;;28.05;10.32;;;1.40;99.90;;;;;;1920464;73;21114;-79
2020/12/08 07:49:04;;;;;;;16.00;9.83;;;1.60;99.90;;;;;;1922005;73;21214;-78
2020/12/08 07:51:30;;;;;;;20.00;11.30;;;1.60;99.90;;;;;;1930767;73;21071;-79
2020/12/08 07:53:57;;;;;;;25.70;11.03;;;1.60;99.90;;;;;;1918416;73;21037;-79
2020/12/08 07:56:23;;;;;;;25.88;11.33;;;1.70;99.90;;;;;;1922495;73;21139;-77
2020/12/08 07:58:50;;;;;;;18.92;10.55;;;1.70;99.90;;;;;;1926402;73;21073;-79
2020/12/08 08:01:16;;;;;;;22.37;10.43;;;1.80;99.90;;;;;;1926739;73;21067;-77
2020/12/08 08:03:42;;;;;;;20.17;11.15;;;1.80;99.90;;;;;;1923719;73;21128;-78
2020/12/08 08:06:08;;;;;;;18.80;10.78;;;1.80;99.90;;;;;;1924301;73;21098;-79
2020/12/08 08:08:34;;;;;;;17.77;10.30;;;1.70;99.90;;;;;;1885553;75;21050;-79
2020/12/08 08:11:00;;;;;;;22.40;10.72;;;1.70;99.90;;;;;;1900576;73;21181;-78
2020/12/08 08:13:27;;;;;;;23.75;10.98;;;1.70;99.90;;;;;;1894051;75;21591;-80
2020/12/08 08:15:54;;;;;;;21.87;10.82;;;1.70;99.90;;;;;;1922048;73;21144;-78
2020/12/08 08:18:20;;;;;;;21.00;9.93;;;1.70;99.90;;;;;;1908666;73;21047;-79
2020/12/08 08:20:46;;;;;;;18.90;9.80;;;1.70;99.90;;;;;;1922623;73;21078;-78
2020/12/08 08:23:12;;;;;;;18.73;9.23;;;1.80;99.90;;;;;;1916025;73;21067;-78
2020/12/08 08:25:38;;;;;;;16.50;9.48;;;1.80;99.90;;;;;;1931740;74;21199;-78
2020/12/08 08:28:04;;;;;;;18.30;9.80;;;1.80;99.90;;;;;;1925647;73;21470;-78
2020/12/08 08:30:30;;;;;;;21.93;9.45;;;1.90;99.90;;;;;;1929115;73;21541;-78
2020/12/08 08:32:56;;;;;;;19.02;10.50;;;1.90;99.90;;;;;;1924067;73;21479;-78
2020/12/08 08:35:23;;;;;;;19.87;10.70;;;2.00;99.90;;;;;;1924354;73;21065;-78
2020/12/08 08:37:49;;;;;;;18.50;10.23;;;2.20;99.90;;;;;;1921092;73;21144;-80
2020/12/08 08:40:15;;;;;;;22.80;11.08;;;2.50;99.90;;;;;;1934617;74;21141;-81
2020/12/08 08:42:41;;;;;;;19.10;10.95;;;2.90;99.90;;;;;;1925669;73;21066;-78
2020/12/08 08:45:07;;;;;;;21.35;11.18;;;3.20;99.90;;;;;;1936828;74;21168;-79
2020/12/08 08:47:33;;;;;;;21.05;11.18;;;3.30;99.90;;;;;;1942498;73;21038;-79
2020/12/08 08:49:59;;;;;;;16.23;8.85;;;3.50;99.90;;;;;;1932211;73;21067;-79
2020/12/08 08:52:26;;;;;;;19.48;9.85;;;3.60;99.90;;;;;;1910905;74;21055;-79
2020/12/08 08:54:52;;;;;;;16.42;9.75;;;4.00;99.90;;;;;;1912298;74;21577;-79
2020/12/08 08:57:18;;;;;;;24.12;10.35;;;4.20;99.90;;;;;;1910025;74;21521;-79
2020/12/08 08:59:46;;;;;;;17.45;9.65;;;4.60;99.90;;;;;;1904668;74;21407;-79
2020/12/08 09:02:13;;;;;;;15.18;9.10;;;4.70;99.90;;;;;;1898138;74;21140;-79
2020/12/08 09:04:39;;;;;;;16.57;9.60;;;4.70;99.90;;;;;;1901456;74;21054;-78
2020/12/08 09:07:05;;;;;;;16.30;8.48;;;4.80;99.90;;;;;;1896837;74;21053;-79
2020/12/08 09:09:33;;;;;;;19.02;9.58;;;4.90;99.90;;;;;;1893231;74;21081;-78
2020/12/08 09:11:59;;;;;;;17.73;9.43;;;4.70;99.90;;;;;;1928454;74;21161;-79
2020/12/08 09:14:27;;;;;;;19.90;10.30;;;4.70;99.90;;;;;;1928352;73;21133;-79
2020/12/08 09:16:53;;;;;;;20.57;9.23;;;4.60;99.90;;;;;;1932251;73;21456;-79
2020/12/08 09:19:20;;;;;;;16.45;9.30;;;5.00;99.90;;;;;;1931543;73;21507;-78
2020/12/08 09:21:46;;;;;;;17.02;8.90;;;5.40;99.90;;;;;;1925192;73;21048;-78
2020/12/08 09:24:12;;;;;;;15.90;9.70;;;5.60;99.90;;;;;;1925594;73;21062;-79
2020/12/08 09:26:38;;;;;;;15.40;9.50;;;5.90;99.90;;;;;;1917962;74;21183;-80
2020/12/08 09:29:04;;;;;;;18.05;8.95;;;5.80;99.90;;;;;;1921849;74;21135;-79
2020/12/08 09:31:31;;;;;;;19.25;8.93;;;5.60;99.90;;;;;;1933781;74;21073;-79
2020/12/08 09:33:57;;;;;;;14.13;7.90;;;5.60;99.90;;;;;;1931768;73;21058;-79
2020/12/08 09:36:23;;;;;;;15.60;8.43;;;5.80;99.90;;;;;;1928999;73;21140;-79
2020/12/08 09:38:50;;;;;;;21.10;8.70;;;5.70;99.90;;;;;;1924476;73;21074;-79
2020/12/08 09:41:16;;;;;;;19.17;8.78;;;5.70;99.90;;;;;;1933083;73;21074;-79
2020/12/08 09:43:42;;;;;;;18.45;9.13;;;5.30;99.90;;;;;;1922094;74;21042;-80
2020/12/08 09:46:08;;;;;;;18.32;9.05;;;5.60;99.90;;;;;;1931549;73;21201;-80
2020/12/08 09:48:34;;;;;;;14.60;8.40;;;5.70;99.90;;;;;;1933011;73;21517;-80
2020/12/08 09:51:00;;;;;;;15.35;8.55;;;6.10;99.90;;;;;;1933701;73;21552;-79
2020/12/08 09:53:27;;;;;;;20.35;9.05;;;5.80;99.90;;;;;;1934239;74;21061;-79
2020/12/08 09:55:53;;;;;;;14.38;8.38;;;5.70;99.90;;;;;;1929068;74;21128;-80
2020/12/08 09:58:19;;;;;;;17.98;9.33;;;6.10;99.90;;;;;;1935553;73;21149;-79
2020/12/08 10:00:45;;;;;;;13.75;8.18;;;6.50;99.90;;;;;;1930405;73;21082;-79
2020/12/08 10:03:11;;;;;;;16.70;8.38;;;6.70;99.90;;;;;;1935009;74;21459;-80
2020/12/08 10:05:37;;;;;;;19.40;8.05;;;6.70;99.90;;;;;;1931851;73;21498;-79
2020/12/08 10:08:03;;;;;;;15.08;8.75;;;6.40;99.90;;;;;;1931555;74;21454;-78
2020/12/08 10:10:29;;;;;;;16.50;8.48;;;6.30;99.90;;;;;;1929975;73;21490;-78
2020/12/08 10:12:56;;;;;;;13.65;7.53;;;6.50;99.90;;;;;;1929233;73;21134;-79
2020/12/08 10:15:22;;;;;;;19.25;8.38;;;6.70;99.90;;;;;;1931059;73;21048;-78
2020/12/08 10:17:48;;;;;;;19.60;8.38;;;6.90;99.90;;;;;;1926598;73;21179;-77
2020/12/08 10:20:14;;;;;;;16.95;8.85;;;7.10;99.90;;;;;;1935181;74;21059;-78
2020/12/08 10:22:40;;;;;;;15.58;7.72;;;7.20;99.90;;;;;;1933865;73;21075;-78
2020/12/08 10:25:06;;;;;;;18.55;8.95;;;7.40;99.90;;;;;;1929443;73;21055;-80
2020/12/08 10:27:32;;;;;;;12.03;8.03;;;7.40;99.90;;;;;;1939711;73;21234;-78
2020/12/08 10:29:58;;;;;;;20.75;8.70;;;6.90;99.90;;;;;;1930385;74;21192;-77
2020/12/08 10:32:25;;;;;;;16.15;8.70;;;6.20;99.90;;;;;;1931889;73;21125;-78
2020/12/08 10:34:51;;;;;;;16.57;8.18;;;6.20;99.90;;;;;;1932235;74;21063;-77
2020/12/08 10:37:17;;;;;;;23.27;8.55;;;6.60;99.90;;;;;;1934579;73;21040;-78
2020/12/08 10:39:43;;;;;;;18.00;8.40;;;7.00;99.90;;;;;;1932007;73;21052;-78
2020/12/08 10:42:09;;;;;;;20.40;8.53;;;7.50;99.90;;;;;;1932216;74;21067;-78
2020/12/08 10:44:35;;;;;;;11.70;7.12;;;7.20;99.90;;;;;;1933549;73;21075;-77
2020/12/08 10:47:01;;;;;;;15.60;7.95;;;7.40;99.90;;;;;;1926040;73;21192;-79
2020/12/08 10:49:29;;;;;;;17.20;6.97;;;7.30;99.90;;;;;;1929266;73;21463;-80
2020/12/08 10:51:55;;;;;;;18.25;6.90;;;7.50;99.90;;;;;;1931604;73;21075;-80
2020/12/08 10:54:21;;;;;;;15.58;7.50;;;8.30;99.90;;;;;;1928689;73;21083;-80
2020/12/08 10:56:47;;;;;;;15.18;7.12;;;8.50;99.90;;;;;;1933791;74;21036;-81
2020/12/08 10:59:13;;;;;;;19.40;8.33;;;8.20;99.90;;;;;;1929928;73;21077;-81
2020/12/08 11:01:39;;;;;;;11.88;6.70;;;7.60;99.90;;;;;;1948018;73;21156;-81
2020/12/08 11:04:05;;;;;;;13.85;7.35;;;6.80;99.90;;;;;;1928599;74;21152;-80
2020/12/08 11:06:32;;;;;;;14.73;7.15;;;6.60;99.90;;;;;;1924362;74;21062;-80
2020/12/08 11:08:58;;;;;;;19.27;7.67;;;6.60;99.90;;;;;;1931833;73;21103;-78
2020/12/08 11:11:24;;;;;;;12.78;7.35;;;6.40;99.90;;;;;;1925677;74;21044;-78
2020/12/08 11:13:50;;;;;;;21.25;9.00;;;6.70;99.90;;;;;;1926949;74;21067;-78
2020/12/08 11:16:16;;;;;;;14.98;6.78;;;6.80;99.90;;;;;;1928928;73;21059;-77
2020/12/08 11:18:42;;;;;;;10.03;6.22;;;6.30;99.90;;;;;;1932642;73;21122;-79
2020/12/08 11:21:08;;;;;;;15.80;7.50;;;6.00;99.90;;;;;;1926605;73;21188;-80
2020/12/08 11:23:34;;;;;;;14.98;7.03;;;5.70;99.90;;;;;;1932122;73;21057;-76
2020/12/08 11:26:01;;;;;;;10.90;6.50;;;5.70;99.90;;;;;;1913695;73;21051;-81
2020/12/08 11:28:27;;;;;;;10.43;6.62;;;5.80;99.90;;;;;;1920724;74;21077;-81
2020/12/08 11:30:53;;;;;;;14.10;6.95;;;5.90;99.90;;;;;;1926524;73;21065;-81
2020/12/08 11:33:19;;;;;;;14.45;7.15;;;5.90;99.90;;;;;;1928609;74;21051;-81
2020/12/08 11:35:45;;;;;;;9.68;6.17;;;5.90;99.90;;;;;;1931797;73;21560;-80
2020/12/08 11:38:11;;;;;;;15.70;7.35;;;5.80;99.90;;;;;;1931157;73;21523;-80
2020/12/08 11:40:37;;;;;;;11.60;6.78;;;6.20;99.90;;;;;;1934149;74;21541;-79
2020/12/08 11:43:03;;;;;;;12.23;6.72;;;6.50;99.90;;;;;;1932034;73;21487;-79
2020/12/08 11:45:29;;;;;;;11.22;6.47;;;7.00;99.90;;;;;;1930723;74;21042;-80
2020/12/08 11:47:56;;;;;;;13.03;7.42;;;7.20;99.90;;;;;;1933942;73;21149;-79
2020/12/08 11:50:22;;;;;;;13.28;6.62;;;7.60;99.90;;;;;;1933763;74;21071;-80
2020/12/08 11:52:48;;;;;;;13.13;6.90;;;7.90;99.90;;;;;;1931654;73;21148;-80
2020/12/08 11:55:14;;;;;;;15.85;7.28;;;8.10;99.90;;;;;;1925425;73;21056;-80
2020/12/08 11:57:40;;;;;;;14.90;6.50;;;8.50;99.90;;;;;;1939013;74;21065;-80
2020/12/08 12:00:06;;;;;;;13.43;6.60;;;8.50;99.90;;;;;;1930623;73;21071;-80
2020/12/08 12:02:32;;;;;;;8.90;5.85;;;7.90;99.90;;;;;;1937279;73;21115;-79
2020/12/08 12:04:58;;;;;;;16.62;6.35;;;7.80;99.90;;;;;;1927371;73;21176;-79
2020/12/08 12:07:25;;;;;;;17.07;6.78;;;8.00;99.90;;;;;;1930806;74;21034;-78
2020/12/08 12:09:51;;;;;;;19.35;7.45;;;7.90;99.90;;;;;;1931323;74;21067;-81
2020/12/08 12:12:17;;;;;;;14.55;6.22;;;7.80;99.90;;;;;;1927888;73;21127;-78
2020/12/08 12:14:43;;;;;;;11.22;6.15;;;8.10;99.90;;;;;;1932552;73;21074;-81
2020/12/08 12:17:09;;;;;;;12.40;5.85;;;8.50;99.90;;;;;;1937909;73;21074;-82
2020/12/08 12:19:35;;;;;;;13.58;6.37;;;8.40;99.90;;;;;;1933964;73;21052;-81
2020/12/08 12:22:01;;;;;;;16.25;6.35;;;8.10;99.90;;;;;;1931315;74;21133;-81
2020/12/08 12:24:28;;;;;;;11.33;6.12;;;7.90;99.90;;;;;;1930143;74;21131;-83
2020/12/08 12:26:54;;;;;;;14.13;6.17;;;8.20;99.90;;;;;;1929823;73;21069;-83
2020/12/08 12:29:20;;;;;;;11.18;5.90;;;8.70;99.90;;;;;;1931506;73;21063;-81
2020/12/08 12:31:46;;;;;;;13.70;6.22;;;8.80;99.90;;;;;;1932369;73;21063;-81
2020/12/08 12:34:12;;;;;;;20.82;6.90;;;8.50;99.90;;;;;;1936200;73;21048;-83
2020/12/08 12:36:38;;;;;;;15.45;6.92;;;7.90;99.90;;;;;;1926271;73;21069;-83
2020/12/08 12:39:04;;;;;;;16.23;7.35;;;7.30;99.90;;;;;;1933771;74;21078;-81
2020/12/08 12:41:31;;;;;;;14.47;7.22;;;7.20;99.90;;;;;;1929435;73;21533;-81